Time;durP1;ratioP1;P1;durP2;ratioP2;P2;SDS_P1;SDS_P2;PMS_P1;PMS_P2;Temp;Humidity;BMP_temperature;BMP_pressure;BME280_temperature;BME280_humidity;BME280_pressure;Samples;Min_cycle;Max_cycle;Signal;HPM_P1;HPM_P2
2023/06/27 00:01:39;;;;;;;4.57;4.10;;;18.50;99.90;17.90;99765;;;;599015;236;23998;-81
2023/06/27 00:04:10;;;;;;;8.67;4.67;;;18.50;99.90;17.80;99763;;;;598046;234;24053;-81
2023/06/27 00:06:43;;;;;;;7.23;3.80;;;18.40;99.90;17.80;99757;;;;600416;235;24031;-82
2023/06/27 00:09:11;;;;;;;4.60;4.20;;;18.40;99.90;17.70;99751;;;;582581;241;24088;-83
2023/06/27 00:11:38;;;;;;;5.90;5.00;;;18.30;99.90;17.70;99758;;;;599045;234;23999;-80
2023/06/27 00:14:09;;;;;;;5.65;5.15;;;18.30;99.90;17.70;99749;;;;597525;234;34666;-82
2023/06/27 00:16:35;;;;;;;4.40;3.90;;;18.20;99.90;17.60;99755;;;;602477;234;24040;-80
2023/06/27 00:19:03;;;;;;;4.97;3.97;;;18.20;99.90;17.60;99745;;;;602711;234;24029;-81
2023/06/27 00:21:34;;;;;;;6.43;3.80;;;18.20;99.90;17.50;99746;;;;602990;234;24047;-78
2023/06/27 00:24:03;;;;;;;9.67;5.43;;;18.10;99.90;17.50;99742;;;;600236;234;23982;-81
2023/06/27 00:26:30;;;;;;;6.47;4.50;;;18.10;99.90;17.40;99739;;;;603483;233;24009;-81
2023/06/27 00:28:58;;;;;;;4.43;4.03;;;18.00;99.90;17.40;99743;;;;603959;234;24014;-81
2023/06/27 00:31:26;;;;;;;7.65;5.95;;;17.90;99.90;17.40;99738;;;;598587;234;34687;-80
2023/06/27 00:33:54;;;;;;;8.63;5.00;;;17.90;99.90;17.30;99726;;;;601521;235;23951;-82
2023/06/27 00:36:26;;;;;;;8.10;4.40;;;17.90;99.90;17.30;99736;;;;586271;241;24045;-81
2023/06/27 00:38:51;;;;;;;4.27;3.87;;;17.80;99.90;17.20;99738;;;;586605;241;23940;-80
2023/06/27 00:41:19;;;;;;;4.30;3.90;;;17.80;99.90;17.20;99733;;;;586712;240;24072;-81
2023/06/27 00:43:50;;;;;;;5.97;5.03;;;17.80;99.90;17.20;99739;;;;610110;232;24022;-80
2023/06/27 00:46:15;;;;;;;4.60;4.20;;;17.80;99.90;17.20;99729;;;;606860;233;23964;-80
2023/06/27 00:48:44;;;;;;;4.93;4.43;;;17.70;99.90;17.10;99730;;;;604427;233;23973;-82
2023/06/27 00:51:12;;;;;;;8.30;5.00;;;17.70;99.90;17.10;99729;;;;590953;239;24061;-82
2023/06/27 00:53:40;;;;;;;7.37;5.03;;;17.70;99.90;17.10;99725;;;;602843;234;24014;-82
2023/06/27 00:56:11;;;;;;;6.03;4.23;;;17.70;99.90;17.10;99718;;;;611242;234;24005;-80
2023/06/27 00:58:36;;;;;;;4.83;4.33;;;17.70;99.90;17.10;99721;;;;609031;230;24034;-81
2023/06/27 01:01:04;;;;;;;5.40;4.90;;;17.70;99.90;17.10;99724;;;;613696;230;23993;-81
2023/06/27 01:03:32;;;;;;;4.57;4.17;;;17.70;99.90;17.10;99721;;;;613534;230;23975;-82
2023/06/27 01:06:00;;;;;;;5.90;4.80;;;17.70;99.90;17.10;99704;;;;613378;230;24051;-81
2023/06/27 01:08:31;;;;;;;5.97;4.53;;;17.70;99.90;17.10;99708;;;;612977;230;23970;-81
2023/06/27 01:11:08;;;;;;;8.30;4.80;;;17.70;99.90;17.10;99698;;;;612396;230;24042;-82
2023/06/27 01:13:38;;;;;;;13.07;5.30;;;17.70;99.90;17.10;99697;;;;621057;230;24021;-81
2023/06/27 01:16:07;;;;;;;7.57;5.17;;;17.70;99.90;17.10;99698;;;;611948;230;24011;-81
2023/06/27 01:18:34;;;;;;;7.07;4.90;;;17.70;99.90;17.10;99694;;;;612998;230;24004;-79
2023/06/27 01:21:02;;;;;;;6.20;4.83;;;17.70;99.90;17.10;99690;;;;612774;230;23971;-81
2023/06/27 01:23:55;;;;;;;6.27;5.03;;;17.60;99.90;17.10;99683;;;;592587;236;24020;-81
2023/06/27 01:26:23;;;;;;;7.23;4.70;;;17.60;99.90;17.00;99684;;;;612695;230;24058;-81
2023/06/27 01:28:53;;;;;;;6.67;5.07;;;17.60;99.90;17.00;99681;;;;612962;230;23995;-82
2023/06/27 01:31:50;;;;;;;5.07;4.57;;;17.60;99.90;17.00;99678;;;;613027;230;24007;-81
2023/06/27 01:34:36;;;;;;;5.37;4.87;;;17.60;99.90;17.00;99672;;;;612677;230;23990;-81
2023/06/27 01:37:10;;;;;;;4.63;4.23;;;17.60;99.90;17.00;99668;;;;612535;230;24003;-81
2023/06/27 01:39:59;;;;;;;5.80;4.73;;;17.60;99.90;17.00;99661;;;;613937;230;23973;-82
2023/06/27 01:42:33;;;;;;;5.60;5.10;;;17.60;99.90;17.00;99672;;;;614071;230;24020;-81
2023/06/27 01:45:01;;;;;;;6.10;5.50;;;17.60;99.90;17.00;99665;;;;586720;240;24051;-81
2023/06/27 01:47:29;;;;;;;7.17;5.23;;;17.60;99.90;17.00;99658;;;;604030;230;23973;-82
2023/06/27 01:49:57;;;;;;;6.03;5.30;;;17.60;99.90;17.10;99656;;;;613519;230;24142;-81
2023/06/27 01:52:25;;;;;;;6.33;5.73;;;17.60;99.90;17.10;99652;;;;613961;230;23974;-82
2023/06/27 01:54:52;;;;;;;6.30;5.70;;;17.60;99.90;17.10;99655;;;;613537;230;24012;-82
2023/06/27 01:57:23;;;;;;;5.80;5.27;;;17.70;99.90;17.10;99646;;;;613527;226;23962;-82
2023/06/27 01:59:48;;;;;;;6.90;6.07;;;17.70;99.90;17.10;99646;;;;613587;230;24012;-81
2023/06/27 02:02:16;;;;;;;8.47;5.70;;;17.70;99.90;17.10;99639;;;;613664;230;23974;-82
2023/06/27 02:04:44;;;;;;;6.97;6.27;;;17.70;99.90;17.10;99640;;;;613773;230;23976;-83
2023/06/27 02:07:12;;;;;;;7.17;6.13;;;17.70;99.90;17.10;99643;;;;613683;230;24014;-82
2023/06/27 02:09:40;;;;;;;5.70;5.23;;;17.70;99.90;17.10;99646;;;;613687;230;24048;-81
2023/06/27 02:12:12;;;;;;;6.70;5.90;;;17.70;99.90;17.10;99642;;;;608712;230;24036;-83
2023/06/27 02:14:36;;;;;;;6.33;5.70;;;17.70;99.90;17.10;99641;;;;601271;234;24024;-81
2023/06/27 02:17:08;;;;;;;8.27;5.40;;;17.70;99.90;17.10;99634;;;;581595;243;24076;-80
2023/06/27 02:19:32;;;;;;;3.83;3.53;;;17.60;99.90;17.00;99641;;;;597221;236;26243;-81
2023/06/27 02:22:00;;;;;;;6.20;3.27;;;17.60;99.90;16.90;99642;;;;597753;236;24013;-82
2023/06/27 02:24:28;;;;;;;3.43;2.37;;;17.50;99.90;16.70;99632;;;;597244;236;24005;-81
2023/06/27 02:26:58;;;;;;;4.43;2.30;;;17.30;99.90;16.50;99633;;;;597740;236;24008;-82
2023/06/27 02:29:23;;;;;;;3.90;1.87;;;17.00;99.90;16.10;99646;;;;597525;236;24015;-83
2023/06/27 02:31:51;;;;;;;3.57;1.90;;;16.70;99.90;15.80;99648;;;;597879;236;24079;-83
2023/06/27 02:34:19;;;;;;;5.50;2.00;;;16.40;99.90;15.50;99653;;;;597853;236;24015;-81
2023/06/27 02:36:48;;;;;;;3.53;1.93;;;15.90;99.90;15.40;99639;;;;598339;236;23994;-83
2023/06/27 02:39:16;;;;;;;4.90;2.50;;;15.90;99.90;15.20;99633;;;;597678;239;24029;-82
2023/06/27 02:41:44;;;;;;;2.70;2.43;;;15.80;99.90;15.10;99637;;;;590283;237;24055;-81
2023/06/27 02:44:12;;;;;;;3.67;2.70;;;15.70;99.90;15.00;99632;;;;603842;234;23997;-81
2023/06/27 02:46:40;;;;;;;2.53;2.20;;;15.60;99.90;15.00;99636;;;;604960;234;23996;-82
2023/06/27 02:49:09;;;;;;;4.37;2.70;;;15.50;99.90;15.00;99626;;;;605276;231;24018;-83
2023/06/27 02:51:37;;;;;;;4.00;2.20;;;15.50;99.90;15.00;99622;;;;592212;239;24067;-82
2023/06/27 02:54:05;;;;;;;5.00;3.03;;;15.50;99.90;14.90;99615;;;;603811;234;24039;-82
2023/06/27 02:56:33;;;;;;;7.87;2.90;;;15.50;99.90;14.90;99614;;;;604140;234;24012;-83
2023/06/27 02:59:01;;;;;;;3.13;2.57;;;15.40;99.90;14.90;99610;;;;603706;234;24021;-83
2023/06/27 03:01:28;;;;;;;3.83;2.43;;;15.40;99.90;14.90;99609;;;;603313;234;23992;-83
2023/06/27 03:03:56;;;;;;;3.37;2.60;;;15.40;99.90;14.90;99608;;;;603276;234;24016;-83
2023/06/27 03:06:24;;;;;;;2.93;2.70;;;15.40;99.90;14.90;99603;;;;603160;234;24071;-82
2023/06/27 03:08:54;;;;;;;2.47;2.27;;;15.40;99.90;14.90;99606;;;;603177;234;24036;-82
2023/06/27 03:11:20;;;;;;;3.40;2.60;;;15.40;99.90;14.90;99603;;;;603243;234;23982;-82
2023/06/27 03:13:48;;;;;;;2.63;2.20;;;15.40;99.90;14.90;99611;;;;603427;234;24016;-81
2023/06/27 03:16:16;;;;;;;2.60;2.40;;;15.40;99.90;14.90;99607;;;;603491;234;24001;-82
2023/06/27 03:18:44;;;;;;;5.03;2.80;;;15.50;99.90;15.00;99603;;;;603528;234;24060;-82
2023/06/27 03:21:12;;;;;;;3.20;2.50;;;15.50;99.90;14.90;99602;;;;603800;234;24048;-82
2023/06/27 03:23:40;;;;;;;3.13;2.90;;;15.50;99.90;14.90;99596;;;;602925;234;24111;-85
2023/06/27 03:26:08;;;;;;;3.43;3.13;;;15.40;99.90;14.90;99603;;;;602702;234;24015;-84
2023/06/27 03:28:39;;;;;;;4.23;2.77;;;15.40;99.90;14.90;99608;;;;602981;234;23995;-84
2023/06/27 03:31:04;;;;;;;3.23;2.83;;;15.50;99.90;14.90;99606;;;;602572;234;24081;-84
2023/06/27 03:33:32;;;;;;;2.93;2.70;;;15.40;99.90;15.00;99611;;;;603154;234;23996;-83
2023/06/27 03:36:00;;;;;;;3.43;2.57;;;15.50;99.90;15.00;99616;;;;603055;234;23971;-82
2023/06/27 03:38:28;;;;;;;6.33;2.70;;;15.50;99.90;15.00;99611;;;;602816;234;24039;-84
2023/06/27 03:41:00;;;;;;;5.10;3.23;;;15.50;99.90;15.00;99604;;;;602604;234;24026;-84
2023/06/27 03:43:27;;;;;;;5.23;3.30;;;15.50;99.90;15.00;99603;;;;612711;230;24001;-82
2023/06/27 03:45:52;;;;;;;6.20;3.10;;;15.60;99.90;15.10;99607;;;;613030;230;24050;-82
2023/06/27 03:48:20;;;;;;;9.60;3.33;;;15.60;99.90;15.10;99611;;;;613566;230;23987;-83
2023/06/27 03:50:47;;;;;;;4.63;3.57;;;15.60;99.90;15.10;99610;;;;613501;230;23995;-83
2023/06/27 03:53:16;;;;;;;5.43;3.23;;;15.70;99.90;15.20;99617;;;;596637;234;24079;-76
2023/06/27 03:55:48;;;;;;;7.67;3.47;;;15.70;99.90;15.20;99616;;;;594350;236;24062;-76
2023/06/27 03:58:12;;;;;;;3.37;2.97;;;15.70;99.90;15.20;99620;;;;595995;237;24065;-78
2023/06/27 04:00:41;;;;;;;6.83;3.10;;;15.80;99.90;15.30;99625;;;;584225;240;24082;-81
2023/06/27 04:03:12;;;;;;;6.43;3.13;;;15.80;99.90;15.30;99612;;;;588570;240;24102;-76
2023/06/27 04:05:37;;;;;;;4.40;3.60;;;15.80;99.90;15.20;99614;;;;586747;240;24110;-79
2023/06/27 04:08:05;;;;;;;7.83;3.63;;;15.80;99.90;15.20;99622;;;;594197;237;24055;-80
2023/06/27 04:10:33;;;;;;;10.97;4.23;;;15.80;99.90;15.20;99638;;;;584721;242;24132;-77
2023/06/27 04:13:01;;;;;;;7.87;4.17;;;15.70;99.90;15.30;99642;;;;601042;237;24054;-80
2023/06/27 04:15:29;;;;;;;7.23;3.47;;;15.80;99.90;15.30;99647;;;;606147;237;24129;-74
2023/06/27 04:17:57;;;;;;;7.77;3.47;;;15.80;99.90;15.30;99656;;;;596130;237;24071;-79
2023/06/27 04:20:25;;;;;;;8.13;3.67;;;15.80;99.90;15.20;99661;;;;585230;242;24077;-79
2023/06/27 04:22:53;;;;;;;16.13;7.13;;;15.80;99.90;15.20;99676;;;;585256;242;24044;-78
2023/06/27 04:25:21;;;;;;;9.67;4.13;;;15.70;99.90;15.20;99680;;;;584623;242;24070;-81
2023/06/27 04:27:51;;;;;;;4.57;3.07;;;15.70;99.90;15.20;99676;;;;573336;246;25337;-79
2023/06/27 04:30:17;;;;;;;8.83;3.80;;;15.80;99.90;15.30;99679;;;;582080;246;24101;-81
2023/06/27 04:32:48;;;;;;;9.40;3.87;;;15.80;99.90;15.30;99684;;;;583906;242;24094;-80
2023/06/27 04:35:16;;;;;;;13.48;7.47;;;15.80;99.90;15.20;99690;;;;578421;242;46049;-81
2023/06/27 04:37:40;;;;;;;5.87;4.67;;;15.70;99.90;15.20;99689;;;;573256;246;24136;-77
2023/06/27 04:40:10;;;;;;;11.03;4.30;;;15.80;99.90;15.30;99679;;;;583820;242;24088;-81
2023/06/27 04:42:37;;;;;;;5.67;3.73;;;15.80;99.90;15.20;99670;;;;592487;242;24089;-82
2023/06/27 04:45:08;;;;;;;11.07;4.40;;;15.80;99.90;15.20;99671;;;;572681;247;24097;-80
2023/06/27 04:47:32;;;;;;;10.93;4.20;;;15.80;99.90;15.20;99660;;;;583447;242;23097;-82
2023/06/27 04:50:02;;;;;;;9.97;4.00;;;15.70;99.90;15.20;99649;;;;572899;247;24097;-81
2023/06/27 04:52:30;;;;;;;8.00;3.90;;;15.70;99.90;15.20;99642;;;;583763;242;24078;-77
2023/06/27 04:55:01;;;;;;;10.90;4.40;;;15.70;99.90;15.20;99637;;;;582757;247;24133;-79
2023/06/27 04:57:25;;;;;;;14.50;5.17;;;15.70;99.90;15.20;99624;;;;571139;246;24374;-82
2023/06/27 04:59:57;;;;;;;3.63;3.17;;;15.80;99.90;15.30;99630;;;;584633;242;24101;-81
2023/06/27 05:02:22;;;;;;;7.40;3.30;;;15.80;99.90;15.30;99620;;;;572493;247;24093;-82
2023/06/27 05:04:50;;;;;;;8.13;4.23;;;15.70;99.90;15.30;99623;;;;584324;242;24068;-80
2023/06/27 05:07:18;;;;;;;6.77;3.60;;;15.80;99.90;15.30;99615;;;;573457;247;24118;-80
2023/06/27 05:09:46;;;;;;;14.17;4.63;;;15.80;99.90;15.40;99616;;;;584441;242;24054;-81
2023/06/27 05:12:14;;;;;;;6.70;4.27;;;15.80;99.90;15.40;99612;;;;571895;247;24101;-81
2023/06/27 05:14:42;;;;;;;12.17;4.37;;;15.90;99.90;15.50;99613;;;;570661;246;24113;-76
2023/06/27 05:17:10;;;;;;;3.47;3.20;;;16.00;99.90;15.50;99608;;;;567564;249;24125;-82
2023/06/27 05:19:39;;;;;;;9.20;3.67;;;16.00;99.90;15.40;99619;;;;567719;249;24098;-82
2023/06/27 05:22:07;;;;;;;8.90;3.00;;;16.00;99.90;15.50;99615;;;;568169;251;24075;-83
2023/06/27 05:24:35;;;;;;;10.07;3.90;;;16.00;99.90;15.50;99616;;;;583116;246;24135;-81
2023/06/27 05:27:03;;;;;;;6.33;3.70;;;16.00;99.90;15.60;99606;;;;574406;246;24089;-79
2023/06/27 05:29:30;;;;;;;13.70;4.03;;;16.10;99.90;15.50;99600;;;;564512;251;24211;-80
2023/06/27 05:31:58;;;;;;;9.30;4.10;;;16.10;99.90;15.50;99610;;;;582209;239;24124;-79
2023/06/27 05:34:31;;;;;;;7.10;4.00;;;16.10;99.90;15.60;99609;;;;588461;242;24038;-79
2023/06/27 05:36:58;;;;;;;9.27;3.77;;;16.10;99.90;15.60;99610;;;;579859;241;24049;-79
2023/06/27 05:39:23;;;;;;;7.73;3.47;;;16.10;99.90;15.60;99607;;;;576843;245;24083;-81
2023/06/27 05:41:51;;;;;;;10.00;4.10;;;16.10;99.90;15.70;99610;;;;580513;245;24041;-78
2023/06/27 05:44:19;;;;;;;8.73;3.20;;;16.20;99.90;15.70;99620;;;;579210;243;24170;-77
2023/06/27 05:46:48;;;;;;;6.13;2.70;;;16.20;99.90;15.80;99617;;;;577538;246;24080;-78
2023/06/27 05:49:16;;;;;;;7.47;3.33;;;16.30;99.90;15.80;99614;;;;584941;243;24098;-81
2023/06/27 05:51:46;;;;;;;7.60;3.57;;;16.30;99.90;15.80;99610;;;;572331;247;24179;-76
2023/06/27 05:54:13;;;;;;;4.67;2.87;;;16.30;99.90;15.80;99617;;;;589845;240;24034;-81
2023/06/27 05:56:41;;;;;;;6.47;3.53;;;16.40;99.90;15.80;99613;;;;597341;238;24093;-83
2023/06/27 05:59:11;;;;;;;6.23;3.17;;;16.40;99.90;15.90;99612;;;;596614;237;24130;-75
2023/06/27 06:01:37;;;;;;;5.70;3.93;;;16.50;99.90;15.90;99611;;;;587440;238;24107;-75
2023/06/27 06:04:05;;;;;;;5.63;3.77;;;16.50;99.90;15.90;99609;;;;580757;242;23952;-76
2023/06/27 06:06:38;;;;;;;6.33;3.30;;;16.50;99.90;15.90;99608;;;;588516;240;24099;-76
2023/06/27 06:09:03;;;;;;;10.43;4.28;;;16.50;99.90;16.00;99601;;;;566043;248;35237;-76
2023/06/27 06:11:32;;;;;;;4.87;3.00;;;16.60;99.90;16.00;99599;;;;588352;240;24052;-75
2023/06/27 06:13:57;;;;;;;2.87;2.63;;;16.70;99.90;16.10;99606;;;;581567;245;24050;-76
2023/06/27 06:16:25;;;;;;;3.97;2.50;;;16.70;99.90;16.20;99615;;;;587780;241;24011;-74
2023/06/27 06:18:53;;;;;;;4.63;2.80;;;16.80;99.90;16.30;99619;;;;578726;245;24072;-76
2023/06/27 06:21:21;;;;;;;8.23;3.13;;;17.00;99.90;16.40;99614;;;;587427;241;24040;-75
2023/06/27 06:23:52;;;;;;;13.07;3.27;;;17.10;99.90;16.40;99619;;;;578974;243;24081;-79
2023/06/27 06:26:17;;;;;;;5.03;2.50;;;17.00;99.90;16.40;99614;;;;593209;240;24031;-74
2023/06/27 06:28:45;;;;;;;9.37;2.60;;;17.10;99.90;16.50;99617;;;;588002;243;24104;-75
2023/06/27 06:31:17;;;;;;;4.97;2.50;;;17.10;99.90;16.50;99613;;;;593189;240;24018;-77
2023/06/27 06:33:44;;;;;;;13.13;2.80;;;17.20;99.90;16.50;99608;;;;582257;245;24075;-74
2023/06/27 06:36:12;;;;;;;5.20;2.50;;;17.20;99.90;16.70;99603;;;;585635;240;25199;-78
2023/06/27 06:38:38;;;;;;;8.30;3.00;;;17.60;99.90;17.00;99605;;;;578454;243;24104;-77
2023/06/27 06:41:05;;;;;;;7.10;2.67;;;17.50;99.90;17.50;99609;;;;587246;240;24040;-76
2023/06/27 06:43:33;;;;;;;6.07;3.10;;;18.00;99.90;18.20;99606;;;;572854;245;24148;-74
2023/06/27 06:46:01;;;;;;;7.77;2.70;;;18.70;99.90;19.40;99612;;;;585712;241;24110;-76
2023/06/27 06:48:29;;;;;;;8.77;3.00;;;19.80;99.90;20.70;99620;;;;582717;245;24208;-79
2023/06/27 06:50:57;;;;;;;7.40;2.03;;;21.10;99.90;21.80;99623;;;;593224;241;24084;-75
2023/06/27 06:53:26;;;;;;;4.47;1.97;;;22.90;99.90;22.20;99630;;;;587638;241;24064;-79
2023/06/27 06:55:58;;;;;;;4.33;1.67;;;23.20;99.90;22.50;99629;;;;574413;247;24087;-73
2023/06/27 06:58:22;;;;;;;3.40;1.77;;;23.10;99.90;23.20;99618;;;;571629;247;24140;-74
2023/06/27 07:00:50;;;;;;;4.83;1.87;;;23.70;99.90;23.60;99618;;;;581285;245;24176;-73
2023/06/27 07:03:18;;;;;;;7.30;1.87;;;24.10;99.90;24.20;99614;;;;575979;248;24079;-75
2023/06/27 07:05:50;;;;;;;5.83;1.93;;;25.80;99.90;25.40;99620;;;;581524;244;24052;-73
2023/06/27 07:08:15;;;;;;;9.67;1.90;;;27.40;99.90;27.10;99618;;;;587236;242;24083;-74
2023/06/27 07:10:46;;;;;;;4.37;1.80;;;27.30;99.90;28.00;99630;;;;582461;245;23099;-76
2023/06/27 07:13:11;;;;;;;6.18;1.42;;;28.60;99.90;29.00;99633;;;;581944;244;23107;-73
2023/06/27 07:15:39;;;;;;;1.75;1.17;;;29.50;99.90;29.30;99629;;;;577824;244;23166;-74
2023/06/27 07:18:09;;;;;;;3.85;1.40;;;29.90;99.90;30.00;99623;;;;578247;245;23073;-76
2023/06/27 07:20:36;;;;;;;6.10;1.70;;;30.50;98.70;30.40;99630;;;;589078;242;23095;-74
2023/06/27 07:23:04;;;;;;;9.75;1.80;;;31.00;95.30;31.20;99646;;;;586169;242;24110;-77
2023/06/27 07:25:35;;;;;;;3.90;1.35;;;31.70;93.30;31.50;99641;;;;594636;241;23075;-81
2023/06/27 07:28:01;;;;;;;5.68;1.50;;;32.10;88.40;31.40;99633;;;;583876;242;24149;-75
2023/06/27 07:30:29;;;;;;;5.60;1.23;;;32.00;87.10;32.30;99637;;;;573946;247;23106;-76
2023/06/27 07:32:57;;;;;;;4.87;1.35;;;32.80;81.20;33.20;99632;;;;583336;243;23253;-82
2023/06/27 07:35:29;;;;;;;7.05;1.85;;;33.70;79.40;33.80;99628;;;;585987;241;23068;-82
2023/06/27 07:37:53;;;;;;;5.93;1.87;;;34.20;75.90;34.10;99638;;;;583474;243;23060;-84
2023/06/27 07:40:22;;;;;;;3.25;1.52;;;34.70;69.30;34.20;99640;;;;585912;243;23098;-79
2023/06/27 07:42:54;;;;;;;3.37;1.37;;;34.80;69.30;34.40;99641;;;;585663;243;23130;-76
2023/06/27 07:45:18;;;;;;;4.00;1.75;;;35.00;68.80;33.40;99650;;;;595965;238;24142;-75
2023/06/27 07:47:46;;;;;;;4.43;2.03;;;34.40;65.10;31.80;99645;;;;582528;246;23077;-76
2023/06/27 07:50:15;;;;;;;5.47;1.87;;;32.40;67.60;31.40;99635;;;;605213;237;23050;-75
2023/06/27 07:52:45;;;;;;;2.03;1.45;;;32.30;67.50;30.80;99640;;;;597073;238;24063;-74
2023/06/27 07:55:15;;;;;;;4.82;1.60;;;31.80;68.60;29.70;99651;;;;596735;238;23078;-75
2023/06/27 07:57:43;;;;;;;3.28;1.40;;;29.80;73.10;28.80;99644;;;;601857;238;23081;-74
2023/06/27 08:00:12;;;;;;;3.42;1.50;;;29.80;72.30;28.00;99644;;;;594683;238;23040;-75
2023/06/27 08:02:36;;;;;;;2.78;1.17;;;28.90;74.00;27.30;99638;;;;595246;238;23054;-74
2023/06/27 08:05:09;;;;;;;1.33;0.98;;;27.80;78.20;27.20;99637;;;;596684;238;23063;-75
2023/06/27 08:07:36;;;;;;;4.68;1.35;;;27.70;78.00;28.50;99634;;;;596094;238;24097;-74
2023/06/27 08:10:05;;;;;;;3.40;1.52;;;28.60;80.10;30.80;99637;;;;594403;238;23069;-73
2023/06/27 08:12:29;;;;;;;3.75;1.40;;;30.70;74.90;33.00;99638;;;;594371;238;23037;-76
2023/06/27 08:14:57;;;;;;;3.95;1.15;;;32.90;69.40;35.00;99640;;;;596539;238;24063;-77
2023/06/27 08:17:25;;;;;;;5.97;1.40;;;35.10;65.20;35.20;99636;;;;592858;238;23029;-75
2023/06/27 08:19:54;;;;;;;1.62;1.30;;;35.10;59.10;34.10;99635;;;;596548;238;23038;-76
2023/06/27 08:22:25;;;;;;;2.40;1.30;;;35.10;59.10;33.10;99639;;;;596411;238;23029;-74
2023/06/27 08:24:50;;;;;;;4.82;1.35;;;34.20;58.90;33.60;99642;;;;593422;239;23134;-75
2023/06/27 08:27:18;;;;;;;4.05;1.30;;;34.20;60.80;35.30;99647;;;;574798;248;23108;-75
2023/06/27 08:29:49;;;;;;;4.40;1.90;;;35.50;58.40;36.30;99651;;;;582969;242;23069;-74
2023/06/27 08:32:14;;;;;;;7.10;1.70;;;36.70;56.20;35.70;99641;;;;598421;239;23174;-75
2023/06/27 08:34:42;;;;;;;6.50;1.20;;;36.50;54.80;34.50;99651;;;;577997;246;24160;-75
2023/06/27 08:37:14;;;;;;;1.55;1.27;;;35.60;55.60;32.80;99648;;;;574190;242;23121;-74
2023/06/27 08:39:39;;;;;;;4.60;1.58;;;34.20;56.30;31.60;99650;;;;586984;234;23043;-75
2023/06/27 08:42:10;;;;;;;2.08;1.40;;;32.90;59.50;31.00;99654;;;;593179;239;23053;-76
2023/06/27 08:44:37;;;;;;;19.77;2.03;;;32.00;61.10;30.80;99652;;;;581630;242;23076;-74
2023/06/27 08:47:05;;;;;;;2.37;1.23;;;31.50;62.20;31.70;99657;;;;583074;240;23059;-76
2023/06/27 08:49:33;;;;;;;1.33;1.27;;;32.00;62.20;33.00;99668;;;;597648;237;24084;-75
2023/06/27 08:52:04;;;;;;;5.82;1.52;;;33.20;59.90;33.00;99671;;;;584673;242;23067;-74
2023/06/27 08:54:35;;;;;;;2.22;1.10;;;33.50;58.70;32.10;99666;;;;594382;239;23066;-75
2023/06/27 08:57:03;;;;;;;1.42;1.10;;;33.00;58.20;31.70;99674;;;;594517;239;23096;-74
2023/06/27 08:59:40;;;;;;;1.92;1.10;;;32.50;59.60;31.80;99669;;;;594293;239;23057;-78
2023/06/27 09:02:05;;;;;;;2.80;1.35;;;32.50;59.20;31.90;99678;;;;593874;239;23073;-78
2023/06/27 09:04:41;;;;;;;1.98;1.12;;;32.40;60.40;32.70;99673;;;;594601;239;24069;-75
2023/06/27 09:07:12;;;;;;;3.45;1.20;;;33.10;59.60;34.30;99681;;;;592470;238;23055;-74
2023/06/27 09:09:39;;;;;;;2.60;1.35;;;34.40;58.30;34.90;99676;;;;592106;239;23056;-75
2023/06/27 09:12:08;;;;;;;1.65;0.98;;;35.30;55.90;34.90;99696;;;;587945;239;23084;-76
2023/06/27 09:14:33;;;;;;;3.30;1.10;;;35.50;55.40;34.10;99685;;;;591982;239;23057;-74
2023/06/27 09:17:03;;;;;;;3.78;1.27;;;34.80;55.10;34.30;99699;;;;594107;239;23038;-74
2023/06/27 09:19:31;;;;;;;3.55;1.33;;;35.00;55.50;33.60;99700;;;;593843;239;23043;-74
2023/06/27 09:22:02;;;;;;;4.43;1.60;;;34.60;54.30;33.70;99696;;;;594005;239;23046;-75
2023/06/27 09:24:30;;;;;;;2.67;1.35;;;34.10;55.00;33.10;99703;;;;590530;240;23012;-74
2023/06/27 09:26:55;;;;;;;6.40;1.20;;;34.10;55.00;32.00;99712;;;;581276;242;24187;-77
2023/06/27 09:29:23;;;;;;;1.27;0.82;;;33.10;56.50;30.90;99718;;;;587492;243;23106;-73
2023/06/27 09:31:51;;;;;;;2.72;0.82;;;32.10;57.50;30.90;99716;;;;571968;251;23201;-79
2023/06/27 09:34:19;;;;;;;1.08;0.85;;;32.80;58.80;32.60;99725;;;;561491;247;23133;-82
2023/06/27 09:36:49;;;;;;;3.20;1.10;;;32.80;58.80;33.80;99723;;;;569761;242;23122;-84
2023/06/27 09:39:17;;;;;;;2.45;1.20;;;34.10;56.20;34.80;99739;;;;572222;246;24151;-78
2023/06/27 09:41:47;;;;;;;0.82;0.50;;;35.10;55.40;35.70;99732;;;;555992;254;24182;-79
2023/06/27 09:44:21;;;;;;;4.55;1.15;;;36.20;52.90;35.60;99730;;;;577510;247;23136;-75
2023/06/27 09:46:49;;;;;;;2.83;1.10;;;36.60;50.90;33.70;99728;;;;583498;242;23067;-77
2023/06/27 09:49:18;;;;;;;7.62;1.50;;;35.20;51.90;32.50;99729;;;;570594;250;24160;-76
2023/06/27 09:51:45;;;;;;;4.50;2.12;;;33.90;54.40;32.30;99729;;;;564778;250;23128;-74
2023/06/27 09:54:16;;;;;;;1.67;1.10;;;33.30;55.70;32.70;99726;;;;572442;250;23133;-74
2023/06/27 09:56:43;;;;;;;3.15;1.30;;;33.40;56.10;33.30;99751;;;;572709;246;23107;-76
2023/06/27 09:59:12;;;;;;;1.52;1.05;;;34.20;54.10;33.60;99735;;;;584199;241;23088;-76
2023/06/27 10:01:39;;;;;;;3.10;1.87;;;34.20;54.00;33.90;99734;;;;574244;246;23135;-77
2023/06/27 10:04:11;;;;;;;3.83;2.10;;;34.60;54.10;34.40;99737;;;;583294;246;23108;-75
2023/06/27 10:06:37;;;;;;;3.83;1.30;;;35.10;54.10;34.80;99742;;;;573183;246;23161;-74
2023/06/27 10:09:09;;;;;;;2.65;1.65;;;35.50;53.10;35.20;99743;;;;582864;244;23077;-76
2023/06/27 10:11:37;;;;;;;5.45;1.60;;;36.10;52.50;34.80;99747;;;;570668;248;23095;-75
2023/06/27 10:14:00;;;;;;;4.55;1.77;;;35.90;52.20;33.40;99746;;;;586139;242;23073;-76
2023/06/27 10:16:34;;;;;;;3.17;1.45;;;34.70;53.10;31.40;99741;;;;575863;248;23129;-74
2023/06/27 10:18:59;;;;;;;9.07;1.85;;;33.00;55.50;30.30;99734;;;;586476;242;23071;-77
2023/06/27 10:21:30;;;;;;;3.90;1.23;;;31.50;58.70;30.50;99740;;;;567929;248;24097;-77
2023/06/27 10:23:55;;;;;;;2.85;1.20;;;31.20;59.60;30.40;99735;;;;581785;246;23131;-84
2023/06/27 10:26:23;;;;;;;2.80;1.02;;;31.00;60.00;29.40;99748;;;;576288;246;24097;-76
2023/06/27 10:28:54;;;;;;;2.50;1.58;;;30.30;60.80;28.00;99766;;;;583955;245;23102;-81
2023/06/27 10:31:38;;;;;;;2.28;1.48;;;29.10;63.80;26.90;99756;;;;576463;243;23052;-79
2023/06/27 10:34:05;;;;;;;1.15;0.85;;;28.00;66.00;26.00;99788;;;;583178;243;23179;-84
2023/06/27 10:36:51;;;;;;;0.73;0.73;;;26.90;68.90;25.50;99782;;;;582987;244;23064;-78
2023/06/27 10:39:31;;;;;;;2.70;0.50;;;26.20;68.80;24.90;99773;;;;590277;239;24096;-79
2023/06/27 10:42:18;;;;;;;0.60;0.57;;;25.60;69.40;24.90;99777;;;;582372;242;23059;-78
2023/06/27 10:45:03;;;;;;;3.07;1.00;;;25.50;71.10;24.90;99782;;;;584926;242;24138;-79
2023/06/27 10:47:45;;;;;;;2.80;0.90;;;25.30;72.60;24.70;99786;;;;587881;239;23087;-83
2023/06/27 10:50:16;;;;;;;1.00;0.77;;;25.20;72.50;24.80;99792;;;;595070;239;23125;-77
2023/06/27 10:53:11;;;;;;;4.07;0.80;;;25.20;73.30;24.90;99791;;;;595028;239;23069;-78
2023/06/27 10:55:38;;;;;;;1.67;0.67;;;25.40;74.10;24.60;99804;;;;592810;239;24073;-81
2023/06/27 10:58:14;;;;;;;1.50;0.93;;;25.10;74.20;24.20;99795;;;;593477;239;23110;-84
2023/06/27 11:00:46;;;;;;;2.37;1.30;;;24.80;76.30;24.00;99800;;;;593405;239;24037;-77
2023/06/27 11:03:11;;;;;;;3.60;1.47;;;24.50;80.90;23.90;99804;;;;601906;239;23065;-78
2023/06/27 11:05:46;;;;;;;2.77;1.50;;;24.30;87.10;23.90;99794;;;;583489;239;23157;-79
2023/06/27 11:08:19;;;;;;;3.90;1.43;;;24.30;91.50;23.70;99810;;;;596663;238;24023;-81
2023/06/27 11:10:58;;;;;;;5.70;1.43;;;24.10;93.20;23.20;99819;;;;599641;238;23075;-76
2023/06/27 11:13:33;;;;;;;5.80;1.73;;;23.60;92.40;23.00;99813;;;;557045;251;23130;-76
2023/06/27 11:16:04;;;;;;;5.90;1.70;;;23.60;92.40;22.80;99824;;;;572826;242;23110;-78
2023/06/27 11:18:30;;;;;;;5.87;1.53;;;23.30;93.70;22.60;99821;;;;580927;244;24209;-74
2023/06/27 11:20:57;;;;;;;1.47;1.37;;;23.20;93.70;22.20;99826;;;;581353;245;24099;-74
2023/06/27 11:23:25;;;;;;;3.90;1.67;;;22.80;95.30;21.80;99823;;;;582945;245;24072;-76
2023/06/27 11:26:00;;;;;;;5.13;1.83;;;22.50;97.20;21.40;99825;;;;585644;245;24104;-74